Terminal Aerodrome Forecast
Issued by NWS

Home | Current Version | Previous Version | Text Only | Print | Product List | Glossary On
Versions: 1 2 3 4 5 6 7 8 9 10 11 12 13 14 15 16 17
000
FTUS45 KBOI 030523
TAFJER
TAF
KJER 030523Z 0306/0406 VRB06KT P6SM OVC150
     FM031900 24011KT P6SM BKN050 OVC100
     FM040200 21008KT P6SM BKN100=

USA.gov is the U.S. government's official web portal to all federal, state and local government web resources and services.